createdAt,value
2018-06-01T00:00:04.292Z,1.609344
2018-06-01T00:00:16.712Z,1.609344
2018-06-01T00:00:29.129Z,1.609344
2018-06-01T00:00:41.813Z,1.609344
2018-06-01T00:00:54.643Z,1.609344
2018-06-01T00:01:07.068Z,1.609344
2018-06-01T00:01:19.488Z,1.609344
2018-06-01T00:01:31.917Z,4.828032
2018-06-01T00:01:44.359Z,4.828032
2018-06-01T00:01:56.777Z,4.828032
2018-06-01T00:02:09.268Z,1.609344
2018-06-01T00:02:21.737Z,1.609344
2018-06-01T00:02:34.182Z,1.609344
2018-06-01T00:02:46.605Z,1.609344
2018-06-01T00:02:59.025Z,1.609344
2018-06-01T00:03:11.501Z,3.218688
2018-06-01T00:03:23.952Z,3.218688
2018-06-01T00:03:36.398Z,3.218688
2018-06-01T00:03:48.863Z,3.218688
2018-06-01T00:04:01.278Z,3.218688
2018-06-01T00:04:13.710Z,1.609344
2018-06-01T00:04:26.131Z,1.609344
2018-06-01T00:04:38.574Z,1.609344
2018-06-01T00:04:50.992Z,1.609344
2018-06-01T00:05:03.422Z,1.609344
2018-06-01T00:05:15.836Z,3.218688
2018-06-01T00:05:28.249Z,3.218688
2018-06-01T00:05:40.666Z,3.218688
2018-06-01T00:05:53.082Z,3.218688
2018-06-01T00:06:05.530Z,1.609344
2018-06-01T00:06:17.956Z,1.609344
2018-06-01T00:06:30.380Z,1.609344
2018-06-01T00:06:42.800Z,1.609344
2018-06-01T00:06:55.248Z,1.609344
2018-06-01T00:07:07.665Z,3.218688
2018-06-01T00:07:20.090Z,3.218688
2018-06-01T00:07:32.496Z,3.218688
2018-06-01T00:07:44.914Z,4.828032
2018-06-01T00:07:57.350Z,6.437376
2018-06-01T00:08:09.789Z,3.218688
2018-06-01T00:08:22.205Z,3.218688
2018-06-01T00:08:34.628Z,4.828032
2018-06-01T00:08:47.201Z,4.828032
2018-06-01T00:08:59.824Z,4.828032
2018-06-01T00:09:12.248Z,3.218688
2018-06-01T00:09:24.682Z,11.265408
2018-06-01T00:09:37.093Z,11.265408
2018-06-01T00:09:49.553Z,11.265408
2018-06-01T00:10:01.981Z,11.265408
2018-06-01T00:10:14.400Z,8.04672
2018-06-01T00:10:26.886Z,8.04672
2018-06-01T00:10:39.318Z,8.04672
2018-06-01T00:10:51.736Z,8.04672
2018-06-01T00:11:04.155Z,3.218688
2018-06-01T00:11:16.580Z,3.218688
2018-06-01T00:11:28.984Z,3.218688
2018-06-01T00:11:41.400Z,3.218688
2018-06-01T00:11:53.808Z,3.218688
2018-06-01T00:12:06.228Z,1.609344
2018-06-01T00:12:18.641Z,1.609344
2018-06-01T00:12:31.065Z,1.609344
2018-06-01T00:12:43.494Z,3.218688
2018-06-01T00:12:55.902Z,6.437376
2018-06-01T00:13:08.569Z,3.218688
2018-06-01T00:13:20.970Z,3.218688
2018-06-01T00:13:33.526Z,3.218688
2018-06-01T00:13:45.952Z,3.218688
2018-06-01T00:13:58.365Z,3.218688
2018-06-01T00:14:10.788Z,1.609344
2018-06-01T00:14:23.253Z,1.609344
2018-06-01T00:14:35.676Z,1.609344
2018-06-01T00:14:48.093Z,1.609344
2018-06-01T00:15:00.503Z,1.609344
2018-06-01T00:15:12.943Z,3.218688
2018-06-01T00:15:25.375Z,3.218688
2018-06-01T00:15:37.804Z,3.218688
2018-06-01T00:15:50.225Z,3.218688
2018-06-01T00:16:02.672Z,8.04672
2018-06-01T00:16:15.091Z,8.04672
2018-06-01T00:16:27.521Z,8.04672
2018-06-01T00:16:39.949Z,8.04672
2018-06-01T00:16:52.363Z,8.04672
2018-06-01T00:17:04.793Z,3.218688
2018-06-01T00:17:20.496Z,6.437376
2018-06-01T00:17:32.917Z,6.437376
2018-06-01T00:17:45.325Z,6.437376
2018-06-01T00:17:57.732Z,6.437376
2018-06-01T00:18:10.139Z,3.218688
2018-06-01T00:18:22.644Z,3.218688
2018-06-01T00:18:35.075Z,3.218688
2018-06-01T00:18:47.500Z,3.218688
2018-06-01T00:18:59.906Z,3.218688
2018-06-01T00:19:12.322Z,3.218688
2018-06-01T00:19:24.730Z,3.218688
2018-06-01T00:19:37.159Z,3.218688
2018-06-01T00:19:49.599Z,3.218688
2018-06-01T00:20:02.011Z,3.218688
2018-06-01T00:20:14.416Z,1.609344
2018-06-01T00:20:26.849Z,1.609344
2018-06-01T00:20:39.265Z,3.218688
2018-06-01T00:20:51.684Z,3.218688
2018-06-01T00:21:04.098Z,1.609344
2018-06-01T00:21:16.517Z,1.609344
2018-06-01T00:21:28.920Z,1.609344
2018-06-01T00:21:41.323Z,1.609344
2018-06-01T00:21:53.772Z,3.218688
2018-06-01T00:22:06.191Z,1.609344
2018-06-01T00:22:18.616Z,3.218688
2018-06-01T00:22:31.034Z,3.218688
2018-06-01T00:22:43.456Z,3.218688
2018-06-01T00:22:55.845Z,3.218688
2018-06-01T00:23:08.249Z,1.609344
2018-06-01T00:23:20.693Z,3.218688
2018-06-01T00:23:33.146Z,3.218688
2018-06-01T00:23:45.611Z,3.218688
2018-06-01T00:23:58.398Z,3.218688
2018-06-01T00:24:10.803Z,3.218688
2018-06-01T00:24:23.256Z,6.437376
2018-06-01T00:24:35.703Z,6.437376
2018-06-01T00:24:48.145Z,6.437376
2018-06-01T00:25:00.556Z,6.437376
2018-06-01T00:25:13.326Z,4.828032
2018-06-01T00:25:25.911Z,6.437376
2018-06-01T00:25:38.330Z,6.437376
2018-06-01T00:25:50.742Z,6.437376
2018-06-01T00:26:03.167Z,6.437376
2018-06-01T00:26:15.570Z,3.218688
2018-06-01T00:26:27.976Z,3.218688
2018-06-01T00:26:40.372Z,3.218688
2018-06-01T00:26:52.783Z,3.218688
2018-06-01T00:27:05.212Z,1.609344
2018-06-01T00:27:17.632Z,3.218688
2018-06-01T00:27:30.056Z,3.218688
2018-06-01T00:27:42.472Z,3.218688
2018-06-01T00:27:54.877Z,3.218688
2018-06-01T00:28:07.278Z,1.609344
2018-06-01T00:28:19.705Z,1.609344
2018-06-01T00:28:32.132Z,3.218688
2018-06-01T00:28:44.575Z,3.218688
2018-06-01T00:28:57.110Z,3.218688
2018-06-01T00:29:09.531Z,1.609344
2018-06-01T00:29:21.966Z,1.609344
2018-06-01T00:29:34.403Z,1.609344
2018-06-01T00:29:46.838Z,1.609344
2018-06-01T00:29:59.415Z,1.609344
2018-06-01T00:30:11.852Z,0
2018-06-01T00:30:24.278Z,0
2018-06-01T00:30:36.699Z,0
2018-06-01T00:30:49.121Z,3.218688
2018-06-01T00:31:01.551Z,6.437376
2018-06-01T00:31:13.963Z,4.828032
2018-06-01T00:31:26.524Z,6.437376
2018-06-01T00:31:38.957Z,6.437376
2018-06-01T00:31:51.438Z,6.437376
2018-06-01T00:32:03.872Z,3.218688
2018-06-01T00:32:16.304Z,3.218688
2018-06-01T00:32:28.723Z,3.218688
2018-06-01T00:32:41.174Z,3.218688
2018-06-01T00:32:53.614Z,3.218688
2018-06-01T00:33:06.073Z,0
2018-06-01T00:33:18.490Z,1.609344
2018-06-01T00:33:30.907Z,1.609344
2018-06-01T00:33:43.347Z,6.437376
2018-06-01T00:33:55.767Z,6.437376
2018-06-01T00:34:08.212Z,3.218688
2018-06-01T00:34:20.657Z,3.218688
2018-06-01T00:34:33.283Z,3.218688
2018-06-01T00:34:45.697Z,3.218688
2018-06-01T00:34:58.102Z,3.218688
2018-06-01T00:35:10.611Z,3.218688
2018-06-01T00:35:23.003Z,3.218688
2018-06-01T00:35:35.431Z,3.218688
2018-06-01T00:35:47.844Z,4.828032
2018-06-01T00:36:00.269Z,6.437376
2018-06-01T00:36:12.698Z,6.437376
2018-06-01T00:36:25.232Z,6.437376
2018-06-01T00:36:37.639Z,6.437376
2018-06-01T00:36:50.057Z,6.437376
2018-06-01T00:37:02.470Z,6.437376
2018-06-01T00:37:14.884Z,1.609344
2018-06-01T00:37:27.305Z,4.828032
2018-06-01T00:37:39.740Z,6.437376
2018-06-01T00:37:52.171Z,6.437376
2018-06-01T00:38:04.597Z,3.218688
2018-06-01T00:38:17.013Z,4.828032
2018-06-01T00:38:29.415Z,4.828032
2018-06-01T00:38:41.849Z,4.828032
2018-06-01T00:38:54.270Z,6.437376
2018-06-01T00:39:06.695Z,3.218688
2018-06-01T00:39:19.123Z,3.218688
2018-06-01T00:39:31.578Z,3.218688
2018-06-01T00:39:44.022Z,3.218688
2018-06-01T00:39:56.437Z,3.218688
2018-06-01T00:40:08.858Z,3.218688
2018-06-01T00:40:21.297Z,3.218688
2018-06-01T00:40:33.717Z,3.218688
2018-06-01T00:40:46.168Z,3.218688
2018-06-01T00:40:58.600Z,3.218688
2018-06-01T00:41:11.145Z,1.609344
2018-06-01T00:41:23.563Z,3.218688
2018-06-01T00:41:35.978Z,3.218688
2018-06-01T00:41:48.396Z,3.218688
2018-06-01T00:42:00.821Z,3.218688
2018-06-01T00:42:13.229Z,1.609344
2018-06-01T00:42:25.676Z,1.609344
2018-06-01T00:42:38.102Z,3.218688
2018-06-01T00:42:50.512Z,3.218688
2018-06-01T00:43:02.932Z,3.218688
2018-06-01T00:43:15.365Z,1.609344
2018-06-01T00:43:27.773Z,1.609344
2018-06-01T00:43:40.196Z,1.609344
2018-06-01T00:43:52.620Z,3.218688
2018-06-01T00:44:05.048Z,1.609344
2018-06-01T00:44:17.507Z,3.218688
2018-06-01T00:44:29.932Z,3.218688
2018-06-01T00:44:42.336Z,3.218688
2018-06-01T00:44:54.758Z,3.218688
2018-06-01T00:45:07.189Z,6.437376
2018-06-01T00:45:19.648Z,6.437376
2018-06-01T00:45:32.083Z,6.437376
2018-06-01T00:45:44.509Z,6.437376
2018-06-01T00:45:56.929Z,6.437376
2018-06-01T00:46:09.618Z,4.828032
2018-06-01T00:46:22.050Z,6.437376
2018-06-01T00:46:34.453Z,6.437376
2018-06-01T00:46:46.871Z,6.437376
2018-06-01T00:46:59.312Z,6.437376
2018-06-01T00:47:11.793Z,1.609344
2018-06-01T00:47:24.204Z,3.218688
2018-06-01T00:47:36.639Z,6.437376
2018-06-01T00:47:49.073Z,6.437376
2018-06-01T00:48:01.513Z,6.437376
2018-06-01T00:48:13.952Z,1.609344
2018-06-01T00:48:26.560Z,1.609344
2018-06-01T00:48:38.982Z,3.218688
2018-06-01T00:48:51.442Z,3.218688
2018-06-01T00:49:03.870Z,1.609344
2018-06-01T00:49:16.387Z,1.609344
2018-06-01T00:49:28.834Z,3.218688
2018-06-01T00:49:41.258Z,6.437376
2018-06-01T00:49:53.711Z,6.437376
2018-06-01T00:50:06.144Z,3.218688
2018-06-01T00:50:18.549Z,3.218688
2018-06-01T00:50:30.959Z,8.04672
2018-06-01T00:50:43.362Z,8.04672
2018-06-01T00:50:55.785Z,8.04672
2018-06-01T00:51:08.199Z,1.609344
2018-06-01T00:51:20.626Z,3.218688
2018-06-01T00:51:33.045Z,4.828032
2018-06-01T00:51:45.478Z,6.437376
2018-06-01T00:51:57.883Z,6.437376
2018-06-01T00:52:10.295Z,3.218688
2018-06-01T00:52:22.726Z,8.04672
2018-06-01T00:52:35.278Z,8.04672
2018-06-01T00:52:47.691Z,8.04672
2018-06-01T00:53:00.110Z,8.04672
2018-06-01T00:53:12.568Z,8.04672
2018-06-01T00:53:24.965Z,9.656064
2018-06-01T00:53:37.433Z,9.656064
2018-06-01T00:53:49.877Z,9.656064
2018-06-01T00:54:02.291Z,9.656064
2018-06-01T00:54:14.699Z,3.218688
2018-06-01T00:54:27.122Z,3.218688
2018-06-01T00:54:39.533Z,6.437376
2018-06-01T00:54:52.135Z,6.437376
2018-06-01T00:55:04.559Z,3.218688
2018-06-01T00:55:16.982Z,3.218688
2018-06-01T00:55:29.413Z,3.218688
2018-06-01T00:55:41.836Z,8.04672
2018-06-01T00:55:54.255Z,8.04672
2018-06-01T00:56:06.670Z,3.218688
2018-06-01T00:56:19.097Z,3.218688
2018-06-01T00:56:31.516Z,4.828032
2018-06-01T00:56:43.927Z,4.828032
2018-06-01T00:56:56.351Z,8.04672
2018-06-01T00:57:08.785Z,6.437376
2018-06-01T00:57:21.189Z,8.04672
2018-06-01T00:57:33.588Z,8.04672
2018-06-01T00:57:46.010Z,8.04672
2018-06-01T00:57:58.421Z,8.04672
2018-06-01T00:58:10.819Z,3.218688
2018-06-01T00:58:23.439Z,3.218688
2018-06-01T00:58:35.899Z,3.218688
2018-06-01T00:58:48.329Z,3.218688
2018-06-01T00:59:00.793Z,3.218688
2018-06-01T00:59:13.217Z,1.609344
2018-06-01T00:59:25.644Z,3.218688
2018-06-01T00:59:38.082Z,3.218688
2018-06-01T00:59:50.492Z,3.218688
2018-06-01T01:00:02.918Z,3.218688
2018-06-01T01:00:15.388Z,1.609344
2018-06-01T01:00:27.821Z,9.656064
2018-06-01T01:00:40.276Z,9.656064
2018-06-01T01:00:52.721Z,9.656064
2018-06-01T01:01:05.156Z,3.218688
2018-06-01T01:01:17.665Z,3.218688
2018-06-01T01:01:30.096Z,3.218688
2018-06-01T01:01:42.536Z,3.218688
2018-06-01T01:01:54.993Z,3.218688
2018-06-01T01:02:07.428Z,1.609344
2018-06-01T01:02:19.866Z,3.218688
2018-06-01T01:02:32.305Z,4.828032
2018-06-01T01:02:44.723Z,4.828032
2018-06-01T01:02:57.197Z,4.828032
2018-06-01T01:03:09.627Z,3.218688
2018-06-01T01:03:22.106Z,3.218688
2018-06-01T01:03:34.574Z,3.218688
2018-06-01T01:03:47.013Z,3.218688
2018-06-01T01:03:59.430Z,4.828032
2018-06-01T01:04:11.862Z,8.04672
2018-06-01T01:04:24.359Z,8.04672
2018-06-01T01:04:36.781Z,8.04672
2018-06-01T01:04:49.213Z,8.04672
2018-06-01T01:05:01.685Z,8.04672
2018-06-01T01:05:14.176Z,3.218688
2018-06-01T01:05:26.614Z,3.218688
2018-06-01T01:05:39.063Z,3.218688
2018-06-01T01:05:51.492Z,3.218688
2018-06-01T01:06:03.930Z,1.609344
2018-06-01T01:06:16.363Z,3.218688
2018-06-01T01:06:28.789Z,3.218688
2018-06-01T01:06:41.240Z,3.218688
2018-06-01T01:06:53.661Z,3.218688
2018-06-01T01:07:06.096Z,3.218688
2018-06-01T01:07:18.545Z,8.04672
2018-06-01T01:07:30.955Z,8.04672
2018-06-01T01:07:43.365Z,8.04672
2018-06-01T01:07:55.780Z,8.04672
2018-06-01T01:08:08.198Z,1.609344
2018-06-01T01:08:20.677Z,3.218688
2018-06-01T01:08:33.084Z,3.218688
2018-06-01T01:08:45.517Z,3.218688
2018-06-01T01:08:58.828Z,4.828032
2018-06-01T01:09:11.243Z,6.437376
2018-06-01T01:09:23.667Z,8.04672
2018-06-01T01:09:36.091Z,8.04672
2018-06-01T01:09:48.520Z,8.04672
2018-06-01T01:10:00.943Z,8.04672
2018-06-01T01:10:13.403Z,1.609344
2018-06-01T01:10:25.846Z,1.609344
2018-06-01T01:10:38.275Z,1.609344
2018-06-01T01:10:50.710Z,3.218688
2018-06-01T01:11:03.132Z,3.218688
2018-06-01T01:11:15.596Z,6.437376
2018-06-01T01:11:28.059Z,8.04672
2018-06-01T01:11:40.517Z,8.04672
2018-06-01T01:11:52.928Z,8.04672
2018-06-01T01:12:05.330Z,1.609344
2018-06-01T01:12:17.730Z,3.218688
2018-06-01T01:12:30.147Z,3.218688
2018-06-01T01:12:42.556Z,3.218688
2018-06-01T01:12:55.081Z,3.218688
2018-06-01T01:13:07.509Z,1.609344
2018-06-01T01:13:20.296Z,4.828032
2018-06-01T01:13:32.709Z,4.828032
2018-06-01T01:13:45.131Z,4.828032
2018-06-01T01:13:57.538Z,4.828032
2018-06-01T01:14:09.959Z,3.218688
2018-06-01T01:14:22.388Z,3.218688
2018-06-01T01:14:34.819Z,3.218688
2018-06-01T01:14:47.271Z,3.218688
2018-06-01T01:14:59.714Z,3.218688
2018-06-01T01:15:12.171Z,3.218688
2018-06-01T01:15:24.607Z,3.218688
2018-06-01T01:15:37.021Z,3.218688
2018-06-01T01:15:49.460Z,3.218688
2018-06-01T01:16:01.889Z,3.218688
2018-06-01T01:16:14.325Z,3.218688
2018-06-01T01:16:26.754Z,3.218688
2018-06-01T01:16:39.223Z,3.218688
2018-06-01T01:16:51.643Z,3.218688
2018-06-01T01:17:04.133Z,0
2018-06-01T01:17:16.562Z,1.609344
2018-06-01T01:17:28.981Z,1.609344
2018-06-01T01:17:41.425Z,1.609344
2018-06-01T01:17:53.864Z,1.609344
2018-06-01T01:18:06.301Z,3.218688
2018-06-01T01:18:18.952Z,3.218688
2018-06-01T01:18:31.396Z,3.218688
2018-06-01T01:18:43.894Z,3.218688
2018-06-01T01:18:56.308Z,3.218688
2018-06-01T01:19:08.759Z,3.218688
2018-06-01T01:19:21.199Z,3.218688
2018-06-01T01:19:33.631Z,3.218688
2018-06-01T01:19:46.073Z,3.218688
2018-06-01T01:19:58.527Z,3.218688
2018-06-01T01:20:10.974Z,1.609344
2018-06-01T01:20:23.419Z,3.218688
2018-06-01T01:20:35.835Z,3.218688
2018-06-01T01:20:48.264Z,3.218688
2018-06-01T01:21:00.694Z,4.828032
2018-06-01T01:21:13.134Z,6.437376
2018-06-01T01:21:25.572Z,6.437376
2018-06-01T01:21:37.984Z,6.437376
2018-06-01T01:21:50.409Z,6.437376
2018-06-01T01:22:02.833Z,6.437376
2018-06-01T01:22:15.247Z,3.218688
2018-06-01T01:22:27.680Z,3.218688
2018-06-01T01:22:40.119Z,6.437376
2018-06-01T01:22:52.695Z,6.437376
2018-06-01T01:23:05.104Z,3.218688
2018-06-01T01:23:17.511Z,3.218688
2018-06-01T01:23:29.944Z,3.218688
2018-06-01T01:23:42.358Z,3.218688
2018-06-01T01:23:54.782Z,3.218688
2018-06-01T01:24:07.265Z,1.609344
2018-06-01T01:24:19.681Z,6.437376
2018-06-01T01:24:32.334Z,6.437376
2018-06-01T01:24:44.762Z,9.656064
2018-06-01T01:24:57.208Z,9.656064
2018-06-01T01:25:09.633Z,6.437376
2018-06-01T01:25:22.068Z,6.437376
2018-06-01T01:25:34.523Z,6.437376
2018-06-01T01:25:46.968Z,6.437376
2018-06-01T01:25:59.440Z,6.437376
2018-06-01T01:26:11.876Z,1.609344
2018-06-01T01:26:24.310Z,1.609344
2018-06-01T01:26:36.728Z,1.609344
2018-06-01T01:26:49.149Z,1.609344
2018-06-01T01:27:01.581Z,1.609344
2018-06-01T01:27:14.011Z,1.609344
2018-06-01T01:27:26.464Z,1.609344
2018-06-01T01:27:38.937Z,1.609344
2018-06-01T01:27:51.400Z,1.609344
2018-06-01T01:28:03.822Z,0
2018-06-01T01:28:16.249Z,1.609344
2018-06-01T01:28:28.687Z,1.609344
2018-06-01T01:28:41.102Z,3.218688
2018-06-01T01:28:53.533Z,3.218688
2018-06-01T01:29:06.605Z,3.218688
2018-06-01T01:29:19.156Z,8.04672
2018-06-01T01:29:31.636Z,8.04672
2018-06-01T01:29:44.044Z,8.04672
2018-06-01T01:29:56.623Z,8.04672
2018-06-01T01:30:09.051Z,3.218688
2018-06-01T01:30:21.498Z,3.218688
2018-06-01T01:30:33.931Z,3.218688
2018-06-01T01:30:46.388Z,3.218688
2018-06-01T01:30:58.832Z,4.828032
2018-06-01T01:31:11.283Z,6.437376
2018-06-01T01:31:23.702Z,6.437376
2018-06-01T01:31:36.534Z,8.04672
2018-06-01T01:31:49.012Z,8.04672
2018-06-01T01:32:01.446Z,8.04672
2018-06-01T01:32:13.874Z,6.437376
2018-06-01T01:32:26.291Z,6.437376
2018-06-01T01:32:38.750Z,8.04672
2018-06-01T01:32:51.172Z,8.04672
2018-06-01T01:33:03.609Z,9.656064
2018-06-01T01:33:16.063Z,11.265408
2018-06-01T01:33:28.501Z,11.265408
2018-06-01T01:33:40.945Z,11.265408
2018-06-01T01:33:53.378Z,11.265408
2018-06-01T01:34:05.846Z,3.218688
2018-06-01T01:34:18.325Z,8.04672
2018-06-01T01:34:30.751Z,9.656064
2018-06-01T01:34:43.167Z,11.265408
2018-06-01T01:34:55.655Z,11.265408
2018-06-01T01:35:08.332Z,6.437376
2018-06-01T01:35:20.847Z,6.437376
2018-06-01T01:35:33.276Z,8.04672
2018-06-01T01:35:45.698Z,9.656064
2018-06-01T01:35:58.162Z,9.656064
2018-06-01T01:36:10.628Z,6.437376
2018-06-01T01:36:23.085Z,8.04672
2018-06-01T01:36:35.511Z,9.656064
2018-06-01T01:36:47.947Z,9.656064
2018-06-01T01:37:00.403Z,9.656064
2018-06-01T01:37:12.835Z,8.04672
2018-06-01T01:37:25.265Z,8.04672
2018-06-01T01:37:37.719Z,8.04672
2018-06-01T01:37:50.203Z,8.04672
2018-06-01T01:38:02.630Z,8.04672
2018-06-01T01:38:15.047Z,6.437376
2018-06-01T01:38:27.474Z,6.437376
2018-06-01T01:38:39.902Z,6.437376
2018-06-01T01:38:52.380Z,6.437376
2018-06-01T01:39:04.804Z,1.609344
2018-06-01T01:39:17.263Z,6.437376
2018-06-01T01:39:29.744Z,9.656064
2018-06-01T01:39:42.159Z,9.656064
2018-06-01T01:39:54.604Z,9.656064
2018-06-01T01:40:07.243Z,9.656064
2018-06-01T01:40:19.687Z,11.265408
2018-06-01T01:40:32.107Z,11.265408
2018-06-01T01:40:44.529Z,11.265408
2018-06-01T01:40:56.922Z,11.265408
2018-06-01T01:41:09.419Z,8.04672
2018-06-01T01:41:21.831Z,8.04672
2018-06-01T01:41:34.276Z,8.04672
2018-06-01T01:41:46.720Z,8.04672
2018-06-01T01:41:59.139Z,8.04672
2018-06-01T01:42:11.579Z,1.609344
2018-06-01T01:42:23.978Z,3.218688
2018-06-01T01:42:36.414Z,3.218688
2018-06-01T01:42:48.841Z,3.218688
2018-06-01T01:43:01.284Z,6.437376
2018-06-01T01:43:13.731Z,4.828032
2018-06-01T01:43:26.161Z,8.04672
2018-06-01T01:43:38.572Z,8.04672
2018-06-01T01:43:51.007Z,8.04672
2018-06-01T01:44:03.422Z,8.04672
2018-06-01T01:44:15.876Z,4.828032
2018-06-01T01:44:28.310Z,6.437376
2018-06-01T01:44:40.732Z,6.437376
2018-06-01T01:44:53.194Z,9.656064
2018-06-01T01:45:05.625Z,9.656064
2018-06-01T01:45:18.062Z,9.656064
2018-06-01T01:45:30.473Z,9.656064
2018-06-01T01:45:42.892Z,9.656064
2018-06-01T01:45:55.310Z,9.656064
2018-06-01T01:46:07.876Z,8.04672
2018-06-01T01:46:20.298Z,8.04672
2018-06-01T01:46:32.716Z,8.04672
2018-06-01T01:46:45.122Z,8.04672
2018-06-01T01:46:57.537Z,11.265408
2018-06-01T01:47:09.945Z,8.04672
2018-06-01T01:47:22.365Z,8.04672
2018-06-01T01:47:34.806Z,8.04672
2018-06-01T01:47:47.223Z,8.04672
2018-06-01T01:47:59.632Z,8.04672
2018-06-01T01:48:12.065Z,6.437376
2018-06-01T01:48:24.465Z,6.437376
2018-06-01T01:48:36.984Z,6.437376
2018-06-01T01:48:49.400Z,6.437376
2018-06-01T01:49:01.891Z,6.437376
2018-06-01T01:49:14.345Z,8.04672
2018-06-01T01:49:26.789Z,8.04672
2018-06-01T01:49:39.226Z,8.04672
2018-06-01T01:49:51.663Z,8.04672
2018-06-01T01:50:04.099Z,1.609344
2018-06-01T01:50:16.524Z,1.609344
2018-06-01T01:50:28.964Z,1.609344
2018-06-01T01:50:41.388Z,1.609344
2018-06-01T01:50:53.794Z,1.609344
2018-06-01T01:51:06.209Z,1.609344
2018-06-01T01:51:18.619Z,9.656064
2018-06-01T01:51:31.091Z,9.656064
2018-06-01T01:51:43.520Z,9.656064
2018-06-01T01:51:55.924Z,9.656064
2018-06-01T01:52:08.339Z,9.656064
2018-06-01T01:52:20.775Z,9.656064
2018-06-01T01:52:33.420Z,9.656064
2018-06-01T01:52:45.862Z,9.656064
2018-06-01T01:52:58.279Z,9.656064
2018-06-01T01:53:10.730Z,4.828032
2018-06-01T01:53:23.148Z,8.04672
2018-06-01T01:53:35.569Z,8.04672
2018-06-01T01:53:47.984Z,9.656064
2018-06-01T01:54:00.389Z,9.656064
2018-06-01T01:54:12.787Z,8.04672
2018-06-01T01:54:25.249Z,8.04672
2018-06-01T01:54:37.669Z,8.04672
2018-06-01T01:54:50.092Z,8.04672
2018-06-01T01:55:02.563Z,8.04672
2018-06-01T01:55:15.001Z,3.218688
2018-06-01T01:55:27.409Z,8.04672
2018-06-01T01:55:39.845Z,8.04672
2018-06-01T01:55:52.261Z,8.04672
2018-06-01T01:56:04.723Z,1.609344
2018-06-01T01:56:17.125Z,1.609344
2018-06-01T01:56:29.552Z,1.609344
2018-06-01T01:56:41.987Z,3.218688
2018-06-01T01:56:54.437Z,3.218688
2018-06-01T01:57:06.860Z,1.609344
2018-06-01T01:57:19.273Z,1.609344
2018-06-01T01:57:31.852Z,3.218688
2018-06-01T01:57:44.282Z,3.218688
2018-06-01T01:57:56.702Z,3.218688
2018-06-01T01:58:09.114Z,1.609344
2018-06-01T01:58:21.675Z,3.218688
2018-06-01T01:58:34.128Z,3.218688
2018-06-01T01:58:46.553Z,3.218688
2018-06-01T01:58:58.960Z,4.828032
2018-06-01T01:59:11.386Z,6.437376
2018-06-01T01:59:23.857Z,9.656064
2018-06-01T01:59:36.282Z,9.656064
2018-06-01T01:59:48.747Z,9.656064
2018-06-01T02:00:01.163Z,9.656064
2018-06-01T02:00:13.579Z,3.218688
2018-06-01T02:00:25.972Z,6.437376
2018-06-01T02:00:38.419Z,6.437376
2018-06-01T02:00:50.886Z,6.437376
2018-06-01T02:01:03.331Z,6.437376
2018-06-01T02:01:15.782Z,1.609344
2018-06-01T02:01:28.240Z,1.609344
2018-06-01T02:01:40.686Z,1.609344
2018-06-01T02:01:53.146Z,1.609344
2018-06-01T02:02:05.607Z,0
2018-06-01T02:02:18.046Z,0
2018-06-01T02:02:30.529Z,6.437376
2018-06-01T02:02:42.944Z,6.437376
2018-06-01T02:02:55.366Z,6.437376
2018-06-01T02:03:07.790Z,4.828032
2018-06-01T02:03:20.286Z,4.828032
2018-06-01T02:03:32.700Z,4.828032
2018-06-01T02:03:45.149Z,4.828032
2018-06-01T02:03:57.594Z,4.828032
2018-06-01T02:04:10.000Z,1.609344
2018-06-01T02:04:22.410Z,3.218688
2018-06-01T02:04:34.817Z,3.218688
2018-06-01T02:04:47.244Z,3.218688
2018-06-01T02:04:59.666Z,6.437376
2018-06-01T02:05:12.106Z,3.218688
2018-06-01T02:05:24.553Z,6.437376
2018-06-01T02:05:36.969Z,6.437376
2018-06-01T02:05:49.410Z,6.437376
2018-06-01T02:06:01.852Z,6.437376
2018-06-01T02:06:14.305Z,1.609344
2018-06-01T02:06:26.726Z,1.609344
2018-06-01T02:06:39.139Z,1.609344
2018-06-01T02:06:51.594Z,1.609344
2018-06-01T02:07:04.081Z,1.609344
2018-06-01T02:07:16.535Z,3.218688
2018-06-01T02:07:28.987Z,6.437376
2018-06-01T02:07:41.407Z,6.437376
2018-06-01T02:07:53.827Z,6.437376
2018-06-01T02:08:06.248Z,3.218688
2018-06-01T02:08:18.688Z,3.218688
2018-06-01T02:08:31.151Z,3.218688
2018-06-01T02:08:43.575Z,3.218688
2018-06-01T02:08:56.263Z,3.218688
2018-06-01T02:09:08.669Z,6.437376
2018-06-01T02:09:21.092Z,8.04672
2018-06-01T02:09:33.523Z,8.04672
2018-06-01T02:09:45.998Z,8.04672
2018-06-01T02:09:58.420Z,8.04672
2018-06-01T02:10:10.893Z,6.437376
2018-06-01T02:10:23.307Z,6.437376
2018-06-01T02:10:35.723Z,6.437376
2018-06-01T02:10:48.182Z,6.437376
2018-06-01T02:11:00.597Z,6.437376
2018-06-01T02:11:13.029Z,3.218688
2018-06-01T02:11:25.453Z,6.437376
2018-06-01T02:11:37.857Z,6.437376
2018-06-01T02:11:50.298Z,6.437376
2018-06-01T02:12:02.734Z,6.437376
2018-06-01T02:12:15.159Z,3.218688
2018-06-01T02:12:27.563Z,8.04672
2018-06-01T02:12:39.967Z,8.04672
2018-06-01T02:12:52.409Z,8.04672
2018-06-01T02:13:04.854Z,4.828032
2018-06-01T02:13:17.388Z,4.828032
2018-06-01T02:13:29.817Z,4.828032
2018-06-01T02:13:42.244Z,4.828032
2018-06-01T02:13:54.647Z,4.828032
2018-06-01T02:14:07.079Z,1.609344
2018-06-01T02:14:19.493Z,6.437376
2018-06-01T02:14:31.911Z,6.437376
2018-06-01T02:14:44.368Z,6.437376
2018-06-01T02:14:56.782Z,6.437376
2018-06-01T02:15:09.196Z,3.218688
2018-06-01T02:15:21.651Z,8.04672
2018-06-01T02:15:34.055Z,8.04672
2018-06-01T02:15:46.492Z,8.04672
2018-06-01T02:15:58.914Z,8.04672
2018-06-01T02:16:11.329Z,3.218688
2018-06-01T02:16:23.805Z,9.656064
2018-06-01T02:16:36.240Z,9.656064
2018-06-01T02:16:48.683Z,9.656064
2018-06-01T02:17:01.108Z,9.656064
2018-06-01T02:17:13.544Z,8.04672
2018-06-01T02:17:25.973Z,8.04672
2018-06-01T02:17:38.386Z,8.04672
2018-06-01T02:17:50.823Z,8.04672
2018-06-01T02:18:03.233Z,8.04672
2018-06-01T02:18:15.800Z,9.656064
2018-06-01T02:18:28.218Z,9.656064
2018-06-01T02:18:40.632Z,9.656064
2018-06-01T02:18:53.056Z,9.656064
2018-06-01T02:19:05.477Z,1.609344
2018-06-01T02:19:17.905Z,3.218688
2018-06-01T02:19:30.322Z,3.218688
2018-06-01T02:19:42.757Z,3.218688
2018-06-01T02:19:55.196Z,3.218688
2018-06-01T02:20:07.632Z,1.609344
2018-06-01T02:20:20.307Z,1.609344
2018-06-01T02:20:33.157Z,1.609344
2018-06-01T02:20:45.572Z,1.609344
2018-06-01T02:20:58.036Z,1.609344
2018-06-01T02:21:10.459Z,1.609344
2018-06-01T02:21:22.889Z,1.609344
2018-06-01T02:21:35.302Z,1.609344
2018-06-01T02:21:47.721Z,3.218688
2018-06-01T02:22:00.146Z,4.828032
2018-06-01T02:22:12.704Z,8.04672
2018-06-01T02:22:25.127Z,8.04672
2018-06-01T02:22:37.540Z,8.04672
2018-06-01T02:22:49.956Z,8.04672
2018-06-01T02:23:02.397Z,8.04672
2018-06-01T02:23:14.869Z,9.656064
2018-06-01T02:23:27.294Z,9.656064
2018-06-01T02:23:39.714Z,9.656064
2018-06-01T02:23:52.129Z,9.656064
2018-06-01T02:24:04.544Z,1.609344
2018-06-01T02:24:16.984Z,1.609344
2018-06-01T02:24:29.437Z,3.218688
2018-06-01T02:24:41.908Z,4.828032
2018-06-01T02:24:54.323Z,4.828032
2018-06-01T02:25:06.874Z,1.609344
2018-06-01T02:25:19.358Z,3.218688
2018-06-01T02:25:31.758Z,3.218688
2018-06-01T02:25:44.176Z,3.218688
2018-06-01T02:25:56.599Z,4.828032
2018-06-01T02:26:09.030Z,6.437376
2018-06-01T02:26:21.449Z,6.437376
2018-06-01T02:26:33.872Z,9.656064
2018-06-01T02:26:46.302Z,9.656064
2018-06-01T02:26:58.756Z,9.656064